Weippe, ID (83553)

2:09 PM PDT on September 20, 2014 (GMT -0700)
New Hope Subdivision | Change Station
CLOSE
Current Station
Personal Weather Station
Location: Lenore, ID
Elevation: 2087 ft
Nearby Weather Stations

Elev 2087 ft 46.52 °N, 116.38 °W | Updated 8 seconds ago

Clear
Clear
89.2 °F
Feels Like 86 °F
N
5.4
Wind Variable Wind from East
Gusts 9.8 mph

Today
High -- | Low -- °F
--% Chance of Precip.
Yesterday
High -- | Low -- °F
Precip. -- in
6:28 AM 6:45 PM
Waning Crescent, 10% visible
Pressure 30.17 in
Visibility 10.0 miles
Clouds Clear
Heat Index 86 °F
Dew Point 39 °F
Humidity 21%
Rainfall 0.00 in
Snow Depth 0 in , 2 in , 0 in
UV 6 out of 12
Pollen 7.70 out of 12
Air Quality Not available.
Flu Activity Not available.
METAR KGIC 202055Z AUTO 02006KT 10SM CLR 24/05 A3017 RMK AO1 T02430051

More Conditions Fewer Conditions

Pressure 30.17 in
Visibility 10.0 miles
Clouds Clear
Heat Index 86 °F
Dew Point 39 °F
Humidity 21%
Rainfall 0.00 in
Snow Depth 0 in , 2 in , 0 in
UV 6 out of 12
Pollen 7.70 out of 12
Air Quality Not available.
Flu Activity Not available.
METAR KGIC 202055Z AUTO 02006KT 10SM CLR 24/05 A3017 RMK AO1 T02430051

More Conditions Fewer Conditions

10-Day Weather Forecast

Almanac

Astronomy

Sep. 20, 2014 Rise Set
Actual Time 6:28 AM PDT 6:45 PM PDT
Civil Twilight 5:58 AM PDT 7:15 PM PDT
Nautical Twilight 5:22 AM PDT 7:50 PM PDT
Astronomical Twilight 4:45 AM PDT 8:27 PM PDT
Moon 3:02 AM PDT 4:58 PM PDT
Length of Visible Light 13h 17m
Length of Day
12h 16m
Tomorrow will be 3m 16s shorter.
Waning Crescent, 10% of the Moon is Illuminated
Today
Waning Crescent
Sep 24
New
Oct 1
First Quarter
Oct 8
Full
Oct 15
Last Quarter

Today's Extremes

State Highs State Lows

Community

WunderPhotos

Upload Photos

1,754,947 photos uploaded!

WunderBlogs® & News

Nearby

Snow Depth

Station Depth Elevation
Magic Mountain 0 in 6880 ft
Humboldt Gulch 2 in 4250 ft
Mica Creek 0 in 4750 ft
Franklin Basin 0 in 8170 ft
Savage Pass 0 in 6170 ft

Earthquake Activity

City Distance Mag. Time & Date
No recent earthquake activity has been reported nearby.
Minimum magnitude displayed is 2.5.

Coastal Water Temperatures

Place Temperature
No Stations Reporting

Nearby Weather Stations